This is the latest recevied weather packets stored in our database for station/object ER1XDX-13. If no packets are shown the sender has not sent any weather packets the latest 10 day(s).
| Time | Temp. | Humidity | Pressure | Rain* | Wind** | Luminosity | Snow |
|---|---|---|---|---|---|---|---|
| 1777791006 | 22.22° C | 24% | 1012.3 hPa | - | - | - | - |
| 1777790106 | 22.22° C | 23% | 1012.2 hPa | - | - | - | - |
| 1777789206 | 22.22° C | 24% | 1012.2 hPa | - | - | - | - |
| 1777788306 | 22.22° C | 24% | 1012.3 hPa | - | - | - | - |
| 1777787406 | 22.22° C | 24% | 1012.3 hPa | - | - | - | - |
| 1777786506 | 22.22° C | 24% | 1012.3 hPa | - | - | - | - |
| 1777785606 | 22.22° C | 23% | 1012.3 hPa | - | - | - | - |
| 1777784706 | 22.22° C | 24% | 1012.3 hPa | - | - | - | - |
| 1777783806 | 21.67° C | 24% | 1012.2 hPa | - | - | - | - |
| 1777782906 | 21.67° C | 24% | 1012.2 hPa | - | - | - | - |
| 1777782005 | 21.11° C | 24% | 1012.2 hPa | - | - | - | - |
| 1777781105 | 21.11° C | 24% | 1012.2 hPa | - | - | - | - |
| 1777780205 | 20.56° C | 25% | 1012.1 hPa | - | - | - | - |
| 1777779305 | 20° C | 25% | 1011.9 hPa | - | - | - | - |
| 1777778405 | 20° C | 25% | 1012 hPa | - | - | - | - |
| 1777777505 | 19.44° C | 26% | 1011.9 hPa | - | - | - | - |
| 1777776605 | 18.89° C | 26% | 1011.9 hPa | - | - | - | - |
| 1777775705 | 19.44° C | 26% | 1011.9 hPa | - | - | - | - |
| 1777774805 | 18.89° C | 26% | 1011.8 hPa | - | - | - | - |
| 1777773905 | 18.89° C | 26% | 1011.8 hPa | - | - | - | - |
| 1777772989 | 19.44° C | 26% | 1011.8 hPa | - | - | - | - |
| 1777772089 | 19.44° C | 26% | 1011.8 hPa | - | - | - | - |
| 1777771189 | 19.44° C | 26% | 1011.9 hPa | - | - | - | - |
| 1777770289 | 19.44° C | 26% | 1011.9 hPa | - | - | - | - |
| 1777769389 | 19.44° C | 26% | 1011.8 hPa | - | - | - | - |
* Rain since midnight (hover to see other rain measurements)
** Current wind speed in m/s (hover to see current wind gust speed)